createdAt,value
2023-01-18T00:01:13.519Z,92525.59
2023-01-18T00:03:40.745Z,92530.16
2023-01-18T00:06:09.806Z,92520.59
2023-01-18T00:08:37.769Z,92515.56
2023-01-18T00:11:10.364Z,92522.69
2023-01-18T00:13:37.249Z,92528.03
2023-01-18T00:16:11.038Z,92519.13
2023-01-18T00:18:37.903Z,92529.38
2023-01-18T00:21:06.783Z,92526.59
2023-01-18T00:23:33.760Z,92527.25
2023-01-18T00:26:01.929Z,92526.38
2023-01-18T00:28:29.003Z,92525.47
2023-01-18T00:30:55.813Z,92523.78
2023-01-18T00:33:22.621Z,92517.53
2023-01-18T00:36:00.056Z,92513.22
2023-01-18T00:38:27.857Z,92514.97
2023-01-18T00:40:54.388Z,92507.94
2023-01-18T00:43:21.143Z,92507.84
2023-01-18T00:45:47.672Z,92513.06
2023-01-18T00:48:14.155Z,92503.38
2023-01-18T00:50:40.697Z,92508.13
2023-01-18T00:53:07.191Z,92508.78
2023-01-18T00:55:33.812Z,92503.66
2023-01-18T00:58:00.301Z,92509.66
2023-01-18T01:00:27.116Z,92508.75
2023-01-18T01:02:54.151Z,92517.44
2023-01-18T01:05:23.103Z,92514.66
2023-01-18T01:07:49.811Z,92514.19
2023-01-18T01:10:16.464Z,92524.78
2023-01-18T01:12:43.049Z,92520.88
2023-01-18T01:15:10.881Z,92524.19
2023-01-18T01:17:38.293Z,92522.50
2023-01-18T01:20:05.783Z,92530.41
2023-01-18T01:22:32.450Z,92525.72
2023-01-18T01:24:58.969Z,92531.72
2023-01-18T01:27:26.278Z,92532.69
2023-01-18T01:29:52.827Z,92532.56
2023-01-18T01:32:19.309Z,92535.88
2023-01-18T01:34:45.983Z,92538.44
2023-01-18T01:37:12.445Z,92540.63
2023-01-18T01:39:39.095Z,92541.28
2023-01-18T01:42:05.843Z,92545.41
2023-01-18T01:44:32.400Z,92541.50
2023-01-18T01:47:02.820Z,92547.94
2023-01-18T01:49:30.838Z,92547.47
2023-01-18T01:52:03.023Z,92557.59
2023-01-18T01:54:37.206Z,92555.38
2023-01-18T01:57:09.100Z,92554.91
2023-01-18T01:59:39.330Z,92570.16
2023-01-18T02:02:06.727Z,92568.59
2023-01-18T02:04:34.217Z,92563.91
2023-01-18T02:07:01.033Z,92573.00
2023-01-18T02:09:27.806Z,92571.44
2023-01-18T02:11:55.463Z,92576.00
2023-01-18T02:14:26.386Z,92572.88
2023-01-18T02:17:11.559Z,92588.13
2023-01-18T02:20:10.381Z,92590.31
2023-01-18T02:23:01.552Z,92601.00
2023-01-18T02:25:33.700Z,92599.91
2023-01-18T02:28:11.169Z,92602.59
2023-01-18T02:31:01.868Z,92611.81
2023-01-18T02:34:04.188Z,92609.63
2023-01-18T02:37:01.639Z,92616.34
2023-01-18T02:39:59.891Z,92620.72
2023-01-18T02:42:28.051Z,92615.31
2023-01-18T02:44:55.103Z,92616.69
2023-01-18T02:47:23.089Z,92613.16
2023-01-18T02:49:49.630Z,92612.66
2023-01-18T02:52:37.464Z,92614.47
2023-01-18T02:55:04.098Z,92618.06
2023-01-18T02:57:31.087Z,92617.00
2023-01-18T03:00:00.264Z,92618.84
2023-01-18T03:02:28.368Z,92614.19
2023-01-18T03:04:55.754Z,92622.47
2023-01-18T03:07:35.085Z,92615.34
2023-01-18T03:10:04.517Z,92613.69
2023-01-18T03:12:57.515Z,92619.19
2023-01-18T03:15:38.719Z,92620.06
2023-01-18T03:18:28.492Z,92614.72
2023-01-18T03:20:57.081Z,92618.44
2023-01-18T03:23:31.028Z,92614.97
2023-01-18T03:26:00.614Z,92617.09
2023-01-18T03:28:32.385Z,92613.44
2023-01-18T03:31:03.486Z,92607.22
2023-01-18T03:33:33.790Z,92611.47
2023-01-18T03:36:04.333Z,92612.16
2023-01-18T03:38:33.136Z,92605.13
2023-01-18T03:41:01.743Z,92615.28
2023-01-18T03:43:32.329Z,92600.09
2023-01-18T03:45:59.250Z,92598.78
2023-01-18T03:48:25.816Z,92601.34
2023-01-18T03:50:58.216Z,92609.50
2023-01-18T03:53:41.236Z,92606.16
2023-01-18T03:56:15.695Z,92611.63
2023-01-18T03:58:44.685Z,92625.91
2023-01-18T04:01:12.128Z,92614.06
2023-01-18T04:03:38.685Z,92615.63
2023-01-18T04:06:07.866Z,92619.41
2023-01-18T04:08:37.460Z,92622.56
2023-01-18T04:11:06.960Z,92617.06
2023-01-18T04:13:33.477Z,92618.66
2023-01-18T04:16:00.054Z,92614.06
2023-01-18T04:18:26.550Z,92613.97
2023-01-18T04:20:53.057Z,92619.97
2023-01-18T04:23:19.624Z,92619.22
2023-01-18T04:25:49.699Z,92609.94
2023-01-18T04:28:16.641Z,92609.16
2023-01-18T04:30:43.172Z,92608.38
2023-01-18T04:33:09.773Z,92605.25
2023-01-18T04:35:36.316Z,92595.66
2023-01-18T04:38:02.829Z,92596.00
2023-01-18T04:40:29.376Z,92595.75
2023-01-18T04:42:57.341Z,92592.41
2023-01-18T04:45:24.265Z,92587.41
2023-01-18T04:47:50.803Z,92591.19
2023-01-18T04:50:17.431Z,92589.97
2023-01-18T04:52:43.922Z,92593.75
2023-01-18T04:55:10.513Z,92595.66
2023-01-18T04:57:37.073Z,92606.38
2023-01-18T05:00:04.041Z,92600.53
2023-01-18T05:02:30.515Z,92605.91
2023-01-18T05:04:57.036Z,92601.69
2023-01-18T05:07:26.987Z,92602.78
2023-01-18T05:09:53.627Z,92614.72
2023-01-18T05:12:20.093Z,92621.97
2023-01-18T05:14:46.624Z,92612.38
2023-01-18T05:17:13.527Z,92614.63
2023-01-18T05:19:40.174Z,92618.06
2023-01-18T05:22:06.866Z,92627.53
2023-01-18T05:24:33.539Z,92635.91
2023-01-18T05:27:00.111Z,92639.25
2023-01-18T05:29:26.646Z,92647.28
2023-01-18T05:31:53.213Z,92657.22
2023-01-18T05:34:19.798Z,92654.53
2023-01-18T05:36:48.101Z,92663.69
2023-01-18T05:39:14.753Z,92662.47
2023-01-18T05:41:41.286Z,92664.66
2023-01-18T05:44:09.285Z,92665.78
2023-01-18T05:46:35.742Z,92658.97
2023-01-18T05:49:02.321Z,92662.88
2023-01-18T05:51:28.799Z,92670.00
2023-01-18T05:53:55.336Z,92668.88
2023-01-18T05:56:21.968Z,92680.38
2023-01-18T05:58:48.489Z,92681.50
2023-01-18T06:01:15.013Z,92684.94
2023-01-18T06:03:41.695Z,92684.94
2023-01-18T06:06:08.304Z,92689.53
2023-01-18T06:08:35.070Z,92698.66
2023-01-18T06:11:02.648Z,92697.88
2023-01-18T06:13:31.071Z,92701.66
2023-01-18T06:15:59.307Z,92710.50
2023-01-18T06:18:28.202Z,92703.88
2023-01-18T06:20:56.352Z,92718.38
2023-01-18T06:23:23.400Z,92723.47
2023-01-18T06:25:50.401Z,92723.94
2023-01-18T06:28:17.504Z,92720.16
2023-01-18T06:30:44.010Z,92728.50
2023-01-18T06:33:10.525Z,92719.22
2023-01-18T06:35:37.364Z,92727.25
2023-01-18T06:38:05.157Z,92735.63
2023-01-18T06:40:31.770Z,92736.75
2023-01-18T06:42:58.628Z,92734.41
2023-01-18T06:45:25.686Z,92733.59
2023-01-18T06:47:53.075Z,92741.63
2023-01-18T06:50:19.821Z,92748.88
2023-01-18T06:52:46.494Z,92744.63
2023-01-18T06:55:15.076Z,92749.97
2023-01-18T06:57:42.026Z,92752.97
2023-01-18T07:00:11.099Z,92756.78
2023-01-18T07:02:38.131Z,92756.78
2023-01-18T07:05:05.441Z,92764.00
2023-01-18T07:07:32.103Z,92763.22
2023-01-18T07:09:58.587Z,92766.69
2023-01-18T07:12:26.053Z,92786.22
2023-01-18T07:14:52.527Z,92794.25
2023-01-18T07:17:19.095Z,92794.25
2023-01-18T07:19:45.707Z,92797.34
2023-01-18T07:22:13.421Z,92802.72
2023-01-18T07:24:40.083Z,92812.63
2023-01-18T07:27:06.588Z,92813.41
2023-01-18T07:29:33.123Z,92813.09
2023-01-18T07:31:59.716Z,92813.88
2023-01-18T07:34:26.273Z,92819.69
2023-01-18T07:36:52.865Z,92821.25
2023-01-18T07:39:19.335Z,92820.59
2023-01-18T07:41:46.114Z,92824.97
2023-01-18T07:44:12.586Z,92832.03
2023-01-18T07:46:39.206Z,92829.94
2023-01-18T07:49:05.751Z,92842.81
2023-01-18T07:51:32.706Z,92846.38
2023-01-18T07:53:59.391Z,92856.25
2023-01-18T07:56:25.922Z,92857.16
2023-01-18T07:58:52.785Z,92858.53
2023-01-18T08:01:21.749Z,92853.75
2023-01-18T08:03:49.758Z,92859.69
2023-01-18T08:06:19.738Z,92856.22
2023-01-18T08:08:46.265Z,92858.97
2023-01-18T08:11:13.038Z,92861.44
2023-01-18T08:13:39.655Z,92862.81
2023-01-18T08:16:08.323Z,92869.53
2023-01-18T08:18:37.436Z,92870.84
2023-01-18T08:21:04.575Z,92878.06
2023-01-18T08:23:31.144Z,92883.31
2023-01-18T08:26:01.712Z,92877.41
2023-01-18T08:28:28.253Z,92884.25
2023-01-18T08:31:08.998Z,92878.78
2023-01-18T08:33:40.556Z,92889.41
2023-01-18T08:36:10.087Z,92881.59
2023-01-18T08:38:36.710Z,92891.44
2023-01-18T08:41:04.182Z,92890.56
2023-01-18T08:43:30.723Z,92901.53
2023-01-18T08:45:57.335Z,92908.69
2023-01-18T08:48:23.813Z,92914.28
2023-01-18T08:50:51.761Z,92922.56
2023-01-18T08:53:18.304Z,92929.28
2023-01-18T08:55:44.938Z,92923.31
2023-01-18T08:58:11.550Z,92933.50
2023-01-18T09:00:38.145Z,92934.06
2023-01-18T09:03:04.806Z,92934.59
2023-01-18T09:05:34.080Z,92933.25
2023-01-18T09:08:00.668Z,92939.97
2023-01-18T09:10:27.165Z,92939.75
2023-01-18T09:12:54.900Z,92945.34
2023-01-18T09:15:21.457Z,92949.25
2023-01-18T09:17:47.921Z,92957.84
2023-01-18T09:20:15.593Z,92960.53
2023-01-18T09:22:43.620Z,92969.84
2023-01-18T09:25:10.359Z,92973.66
2023-01-18T09:27:37.357Z,92979.78
2023-01-18T09:30:05.247Z,92979.34
2023-01-18T09:32:31.852Z,92990.78
2023-01-18T09:34:58.472Z,92988.75
2023-01-18T09:37:25.041Z,93002.88
2023-01-18T09:39:52.612Z,93010.81
2023-01-18T09:42:25.494Z,93009.59
2023-01-18T09:44:55.226Z,93008.38
2023-01-18T09:47:35.319Z,93011.41
2023-01-18T09:50:22.241Z,93017.09
2023-01-18T09:52:51.373Z,93014.84
2023-01-18T09:55:42.043Z,93018.34
2023-01-18T09:58:25.701Z,93026.84
2023-01-18T10:00:58.745Z,93027.06
2023-01-18T10:03:34.112Z,93023.25
2023-01-18T10:06:07.917Z,93022.53
2023-01-18T10:08:46.728Z,93019.50
2023-01-18T10:11:25.487Z,93029.91
2023-01-18T10:13:57.152Z,93034.81
2023-01-18T10:16:30.600Z,93043.88
2023-01-18T10:18:57.260Z,93042.09
2023-01-18T10:21:39.048Z,93049.81
2023-01-18T10:24:21.649Z,93047.13
2023-01-18T10:26:51.875Z,93062.94
2023-01-18T10:29:53.331Z,93069.44
2023-01-18T10:32:23.412Z,93066.88
2023-01-18T10:34:51.723Z,93079.66
2023-01-18T10:37:31.586Z,93068.00
2023-01-18T10:40:01.655Z,93081.78
2023-01-18T10:42:35.893Z,93067.78
2023-01-18T10:45:02.382Z,93070.81
2023-01-18T10:47:28.952Z,93070.94
2023-01-18T10:49:59.521Z,93075.38
2023-01-18T10:52:30.566Z,93073.16
2023-01-18T10:55:02.588Z,93076.97
2023-01-18T10:57:35.618Z,93072.16
2023-01-18T11:00:03.727Z,93083.44
2023-01-18T11:02:35.801Z,93092.31
2023-01-18T11:05:19.233Z,93104.75
2023-01-18T11:07:45.893Z,93100.47
2023-01-18T11:10:24.793Z,93100.47
2023-01-18T11:12:51.535Z,93101.81
2023-01-18T11:15:17.966Z,93117.94
2023-01-18T11:17:50.253Z,93111.03
2023-01-18T11:20:44.952Z,93116.06
2023-01-18T11:23:19.729Z,93113.91
2023-01-18T11:26:04.100Z,93109.66
2023-01-18T11:28:35.043Z,93110.88
2023-01-18T11:31:11.193Z,93119.50
2023-01-18T11:34:01.087Z,93114.31
2023-01-18T11:36:44.896Z,93127.34
2023-01-18T11:39:24.110Z,93129.34
2023-01-18T11:41:51.634Z,93125.06
2023-01-18T11:44:23.586Z,93131.59
2023-01-18T11:46:53.702Z,93130.72
2023-01-18T11:49:33.647Z,93132.97
2023-01-18T11:52:02.148Z,93137.78
2023-01-18T11:54:43.095Z,93144.31
2023-01-18T11:57:10.977Z,93151.47
2023-01-18T11:59:41.914Z,93158.97
2023-01-18T12:02:29.818Z,93150.28
2023-01-18T12:05:14.628Z,93157.88
2023-01-18T12:08:01.985Z,93165.25
2023-01-18T12:10:40.997Z,93171.75
2023-01-18T12:13:57.136Z,93183.63
2023-01-18T12:16:42.338Z,93184.19
2023-01-18T12:19:11.539Z,93178.47
2023-01-18T12:21:56.409Z,93184.19
2023-01-18T12:24:55.900Z,93179.59
2023-01-18T12:27:46.407Z,93187.31
2023-01-18T12:30:48.518Z,93192.69
2023-01-18T12:33:46.929Z,93196.06
2023-01-18T12:36:38.171Z,93187.69
2023-01-18T12:39:18.972Z,93201.78
2023-01-18T12:42:05.790Z,93201.66
2023-01-18T12:44:58.161Z,93216.00
2023-01-18T12:47:38.003Z,93221.59
2023-01-18T12:50:30.441Z,93218.47
2023-01-18T12:53:06.115Z,93224.66
2023-01-18T12:55:35.399Z,93236.28
2023-01-18T12:58:03.110Z,93255.44
2023-01-18T13:00:47.474Z,93249.84
2023-01-18T13:03:19.821Z,93250.38
2023-01-18T13:06:00.141Z,93247.56
2023-01-18T13:08:42.139Z,93246.75
2023-01-18T13:11:22.324Z,93254.50
2023-01-18T13:13:55.213Z,93262.78
2023-01-18T13:16:51.029Z,93265.78
2023-01-18T13:19:24.829Z,93272.16
2023-01-18T13:22:16.551Z,93287.03
2023-01-18T13:25:00.798Z,93286.13
2023-01-18T13:27:27.551Z,93300.47
2023-01-18T13:29:54.083Z,93291.34
2023-01-18T13:32:25.211Z,93284.44
2023-01-18T13:35:19.539Z,93295.25
2023-01-18T13:37:56.409Z,93271.69
2023-01-18T13:40:34.243Z,93306.50
2023-01-18T13:43:01.439Z,93311.53
2023-01-18T13:45:30.097Z,93316.19
2023-01-18T13:48:00.519Z,93321.63
2023-01-18T13:50:29.971Z,93317.78
2023-01-18T13:53:14.933Z,93344.91
2023-01-18T13:55:59.810Z,93347.66
2023-01-18T13:58:27.865Z,93350.78
2023-01-18T14:00:56.313Z,93372.69
2023-01-18T14:03:27.546Z,93401.03
2023-01-18T14:05:56.160Z,93393.19
2023-01-18T14:08:27.291Z,93400.06
2023-01-18T14:11:05.725Z,93401.50
2023-01-18T14:13:47.168Z,93400.13
2023-01-18T14:16:19.897Z,93412.44
2023-01-18T14:18:55.111Z,93417.03
2023-01-18T14:21:38.989Z,93415.44
2023-01-18T14:24:20.300Z,93430.50
2023-01-18T14:26:47.857Z,93442.16
2023-01-18T14:29:25.049Z,93432.38
2023-01-18T14:31:54.801Z,93445.69
2023-01-18T14:34:29.982Z,93457.97
2023-01-18T14:37:00.343Z,93452.91
2023-01-18T14:39:27.023Z,93456.56
2023-01-18T14:41:58.429Z,93455.44
2023-01-18T14:44:32.708Z,93473.91
2023-01-18T14:47:00.440Z,93472.47
2023-01-18T14:49:33.735Z,93481.59
2023-01-18T14:52:01.699Z,93484.78
2023-01-18T14:54:28.825Z,93484.13
2023-01-18T14:57:06.014Z,93493.59
2023-01-18T14:59:33.785Z,93494.22
2023-01-18T15:02:15.861Z,93501.97
2023-01-18T15:04:42.473Z,93504.00
2023-01-18T15:07:13.817Z,93504.78
2023-01-18T15:09:42.026Z,93508.41
2023-01-18T15:12:10.175Z,93515.66
2023-01-18T15:14:41.679Z,93506.19
2023-01-18T15:17:11.486Z,93512.97
2023-01-18T15:19:46.620Z,93513.75
2023-01-18T15:22:15.825Z,93511.09
2023-01-18T15:24:44.784Z,93516.13
2023-01-18T15:27:14.408Z,93517.72
2023-01-18T15:29:45.934Z,93519.59
2023-01-18T15:32:19.764Z,93526.06
2023-01-18T15:34:49.274Z,93534.72
2023-01-18T15:37:26.373Z,93533.47
2023-01-18T15:40:05.565Z,93534.88
2023-01-18T15:42:51.026Z,93541.19
2023-01-18T15:45:20.743Z,93541.34
2023-01-18T15:47:51.243Z,93548.44
2023-01-18T15:50:23.924Z,93553.59
2023-01-18T15:52:59.453Z,93549.06
2023-01-18T15:55:53.240Z,93575.66
2023-01-18T15:58:34.939Z,93567.97
2023-01-18T16:01:23.586Z,93575.66
2023-01-18T16:03:50.090Z,93582.75
2023-01-18T16:06:22.452Z,93591.09
2023-01-18T16:09:12.871Z,93592.69
2023-01-18T16:11:45.259Z,93596.63
2023-01-18T16:14:29.796Z,93609.22
2023-01-18T16:17:16.011Z,93618.97
2023-01-18T16:19:48.738Z,93620.88
2023-01-18T16:22:20.811Z,93620.41
2023-01-18T16:24:51.902Z,93632.50
2023-01-18T16:27:20.850Z,93635.50
2023-01-18T16:30:09.952Z,93640.06
2023-01-18T16:32:36.705Z,93638.84
2023-01-18T16:35:14.169Z,93652.34
2023-01-18T16:37:41.640Z,93657.72
2023-01-18T16:40:09.200Z,93662.91
2023-01-18T16:42:55.255Z,93671.25
2023-01-18T16:45:22.007Z,93669.69
2023-01-18T16:47:48.977Z,93681.47
2023-01-18T16:50:17.219Z,93683.69
2023-01-18T16:52:44.354Z,93685.53
2023-01-18T16:55:15.585Z,93694.88
2023-01-18T16:57:43.043Z,93708.72
2023-01-18T17:00:18.322Z,93715.69
2023-01-18T17:02:45.201Z,93715.50
2023-01-18T17:05:12.847Z,93724.25
2023-01-18T17:07:40.196Z,93726.94
2023-01-18T17:10:29.036Z,93727.50
2023-01-18T17:12:55.591Z,93737.78
2023-01-18T17:15:22.154Z,93736.38
2023-01-18T17:17:48.951Z,93737.31
2023-01-18T17:20:21.063Z,93745.63
2023-01-18T17:22:47.539Z,93751.78
2023-01-18T17:25:14.433Z,93752.19
2023-01-18T17:27:41.208Z,93758.53
2023-01-18T17:30:09.015Z,93765.75
2023-01-18T17:32:35.527Z,93769.84
2023-01-18T17:35:02.453Z,93769.56
2023-01-18T17:37:28.958Z,93768.75
2023-01-18T17:40:12.109Z,93775.22
2023-01-18T17:42:40.729Z,93772.53
2023-01-18T17:45:07.855Z,93774.91
2023-01-18T17:47:35.235Z,93778.84
2023-01-18T17:50:01.976Z,93782.94
2023-01-18T17:52:28.582Z,93789.56
2023-01-18T17:54:55.152Z,93789.56
2023-01-18T17:57:21.862Z,93809.41
2023-01-18T17:59:48.408Z,93807.81
2023-01-18T18:02:14.967Z,93811.59
2023-01-18T18:04:41.689Z,93821.81
2023-01-18T18:07:08.184Z,93818.06
2023-01-18T18:09:34.695Z,93815.56
2023-01-18T18:12:01.179Z,93828.25
2023-01-18T18:14:27.750Z,93832.63
2023-01-18T18:16:54.427Z,93838.78
2023-01-18T18:19:20.958Z,93833.13
2023-01-18T18:21:47.541Z,93841.16
2023-01-18T18:24:14.007Z,93829.44
2023-01-18T18:26:40.453Z,93832.13
2023-01-18T18:29:07.178Z,93834.03
2023-01-18T18:31:33.667Z,93841.88
2023-01-18T18:34:00.390Z,93846.91
2023-01-18T18:36:26.924Z,93848.81
2023-01-18T18:38:53.474Z,93843.16
2023-01-18T18:41:20.029Z,93854.66
2023-01-18T18:43:46.553Z,93851.69
2023-01-18T18:46:13.323Z,93862.69
2023-01-18T18:48:39.819Z,93869.31
2023-01-18T18:51:06.390Z,93860.97
2023-01-18T18:53:38.294Z,93867.13
2023-01-18T18:56:06.665Z,93874.88
2023-01-18T18:58:36.355Z,93873.28
2023-01-18T19:01:03.663Z,93872.97
2023-01-18T19:03:30.703Z,93877.84
2023-01-18T19:05:57.216Z,93875.16
2023-01-18T19:08:23.998Z,93871.09
2023-01-18T19:10:51.722Z,93874.06
2023-01-18T19:13:18.865Z,93881.00
2023-01-18T19:15:46.565Z,93887.16
2023-01-18T19:18:14.062Z,93894.09
2023-01-18T19:20:41.149Z,93902.44
2023-01-18T19:23:09.185Z,93907.78
2023-01-18T19:25:37.528Z,93912.94
2023-01-18T19:28:04.449Z,93912.53
2023-01-18T19:30:31.599Z,93916.00
2023-01-18T19:32:59.516Z,93917.59
2023-01-18T19:35:26.609Z,93920.38
2023-01-18T19:37:53.648Z,93912.84
2023-01-18T19:40:21.100Z,93912.22
2023-01-18T19:42:50.856Z,93908.56
2023-01-18T19:45:27.348Z,93908.78
2023-01-18T19:47:55.738Z,93914.91
2023-01-18T19:50:22.283Z,93915.22
2023-01-18T19:52:50.576Z,93930.19
2023-01-18T19:55:17.252Z,93933.78
2023-01-18T19:57:43.783Z,93946.56
2023-01-18T20:00:11.121Z,93950.91
2023-01-18T20:02:41.302Z,93961.31
2023-01-18T20:05:08.777Z,93970.25
2023-01-18T20:07:38.299Z,93982.56
2023-01-18T20:10:06.333Z,93987.91
2023-01-18T20:12:32.980Z,93997.00
2023-01-18T20:14:59.485Z,94002.84
2023-01-18T20:17:26.035Z,94007.44
2023-01-18T20:19:52.532Z,94006.34
2023-01-18T20:22:19.145Z,94004.75
2023-01-18T20:24:45.686Z,94006.13
2023-01-18T20:27:16.125Z,94007.53
2023-01-18T20:29:43.324Z,94010.81
2023-01-18T20:32:16.216Z,94009.44
2023-01-18T20:34:44.922Z,94012.09
2023-01-18T20:37:12.865Z,94023.59
2023-01-18T20:39:39.716Z,94018.53
2023-01-18T20:42:06.226Z,94026.28
2023-01-18T20:44:33.039Z,94031.31
2023-01-18T20:46:59.825Z,94032.91
2023-01-18T20:49:36.949Z,94036.19
2023-01-18T20:52:05.326Z,94050.06
2023-01-18T20:54:32.136Z,94059.66
2023-01-18T20:56:59.537Z,94061.25
2023-01-18T20:59:26.156Z,94062.06
2023-01-18T21:01:53.129Z,94062.88
2023-01-18T21:04:19.931Z,94071.97
2023-01-18T21:06:47.115Z,94071.47
2023-01-18T21:09:13.652Z,94068.03
2023-01-18T21:11:40.153Z,94068.81
2023-01-18T21:14:06.811Z,94063.44
2023-01-18T21:16:33.400Z,94063.75
2023-01-18T21:18:59.890Z,94064.53
2023-01-18T21:21:27.298Z,94066.44
2023-01-18T21:23:53.810Z,94073.16
2023-01-18T21:26:20.443Z,94077.91
2023-01-18T21:28:46.979Z,94083.28
2023-01-18T21:31:13.739Z,94083.28
2023-01-18T21:33:40.192Z,94085.47
2023-01-18T21:36:09.607Z,94078.72
2023-01-18T21:38:36.240Z,94089.44
2023-01-18T21:41:02.947Z,94082.19
2023-01-18T21:43:29.453Z,94079.50
2023-01-18T21:45:57.529Z,94088.63
2023-01-18T21:48:26.587Z,94085.03
2023-01-18T21:50:54.625Z,94095.16
2023-01-18T21:53:21.325Z,94086.63
2023-01-18T21:55:47.829Z,94097.94
2023-01-18T21:58:14.639Z,94095.94
2023-01-18T22:00:41.129Z,94092.25
2023-01-18T22:03:07.842Z,94098.19
2023-01-18T22:05:34.425Z,94095.31
2023-01-18T22:08:01.462Z,94098.28
2023-01-18T22:10:28.234Z,94102.63
2023-01-18T22:12:54.761Z,94102.41
2023-01-18T22:15:21.259Z,94118.75
2023-01-18T22:17:47.900Z,94120.94
2023-01-18T22:20:14.803Z,94126.56
2023-01-18T22:22:41.420Z,94129.53
2023-01-18T22:25:08.524Z,94131.72
2023-01-18T22:27:35.074Z,94128.75
2023-01-18T22:30:02.327Z,94134.88
2023-01-18T22:32:28.941Z,94134.88
2023-01-18T22:34:55.466Z,94133.56
2023-01-18T22:37:22.025Z,94132.50
2023-01-18T22:39:48.580Z,94135.16
2023-01-18T22:42:15.106Z,94139.94
2023-01-18T22:44:41.716Z,94141.53
2023-01-18T22:47:08.292Z,94143.09
2023-01-18T22:49:34.914Z,94135.38
2023-01-18T22:52:01.590Z,94152.25
2023-01-18T22:54:28.446Z,94149.56
2023-01-18T22:56:55.044Z,94155.69
2023-01-18T22:59:21.791Z,94159.69
2023-01-18T23:01:48.327Z,94156.78
2023-01-18T23:04:14.796Z,94157.59
2023-01-18T23:06:41.504Z,94157.31
2023-01-18T23:09:09.671Z,94157.31
2023-01-18T23:11:36.116Z,94167.56
2023-01-18T23:14:02.736Z,94170.44
2023-01-18T23:16:29.940Z,94173.13
2023-01-18T23:18:56.449Z,94172.34
2023-01-18T23:21:23.408Z,94172.13
2023-01-18T23:23:50.175Z,94170.53
2023-01-18T23:26:16.783Z,94179.94
2023-01-18T23:28:43.397Z,94183.69
2023-01-18T23:31:15.411Z,94176.81
2023-01-18T23:33:42.316Z,94186.72
2023-01-18T23:36:10.447Z,94186.19
2023-01-18T23:38:37.571Z,94193.94
2023-01-18T23:41:04.249Z,94183.31
2023-01-18T23:43:30.834Z,94191.63
2023-01-18T23:45:57.504Z,94193.03
2023-01-18T23:48:23.979Z,94195.69
2023-01-18T23:50:50.584Z,94211.22
2023-01-18T23:53:17.088Z,94205.34
2023-01-18T23:55:43.888Z,94211.50
2023-01-18T23:58:10.524Z,94217.38
